createdAt,value
2022-08-12T00:00:49.421Z,25.16
2022-08-12T00:03:34.932Z,25.16
2022-08-12T00:06:20.678Z,25.16
2022-08-12T00:09:06.501Z,25.16
2022-08-12T00:11:53.330Z,25.15
2022-08-12T00:14:38.886Z,25.15
2022-08-12T00:17:24.839Z,25.15
2022-08-12T00:20:10.535Z,25.15
2022-08-12T00:22:59.057Z,25.14
2022-08-12T00:26:20.338Z,25.12
2022-08-12T00:29:01.837Z,25.13
2022-08-12T00:31:47.917Z,25.13
2022-08-12T00:34:33.651Z,25.13
2022-08-12T00:37:19.061Z,25.12
2022-08-12T00:40:10.995Z,25.12
2022-08-12T00:42:39.209Z,25.12
2022-08-12T00:45:09.485Z,25.12
2022-08-12T00:47:37.586Z,25.13
2022-08-12T00:50:07.015Z,25.12
2022-08-12T00:52:35.691Z,25.11
2022-08-12T00:55:04.777Z,25.11
2022-08-12T00:57:35.858Z,25.11
2022-08-12T01:00:08.591Z,25.11
2022-08-12T01:02:40.634Z,25.11
2022-08-12T01:05:27.425Z,25.11
2022-08-12T01:08:12.890Z,25.11
2022-08-12T01:11:00.690Z,25.10
2022-08-12T01:13:29.635Z,25.10
2022-08-12T01:15:58.452Z,25.09
2022-08-12T01:18:28.683Z,25.10
2022-08-12T01:21:04.375Z,25.10
2022-08-12T01:23:50.272Z,25.09
2022-08-12T01:26:21.056Z,25.08
2022-08-12T01:28:50.220Z,25.09
2022-08-12T01:31:19.949Z,25.09
2022-08-12T01:33:54.030Z,25.08
2022-08-12T01:36:23.083Z,25.08
2022-08-12T01:38:51.183Z,25.08
2022-08-12T01:41:20.738Z,25.08
2022-08-12T01:43:48.879Z,25.07
2022-08-12T01:46:22.726Z,25.08
2022-08-12T01:49:01.117Z,25.07
2022-08-12T01:52:21.624Z,25.08
2022-08-12T01:54:29.324Z,25.07
2022-08-12T01:57:02.425Z,25.07
2022-08-12T01:59:50.089Z,25.07
2022-08-12T02:02:19.794Z,25.06
2022-08-12T02:05:16.421Z,25.06
2022-08-12T02:08:05.337Z,25.05
2022-08-12T02:10:56.810Z,25.05
2022-08-12T02:13:48.476Z,25.05
2022-08-12T02:16:24.715Z,25.04
2022-08-12T02:18:58.708Z,25.05
2022-08-12T02:21:38.577Z,25.04
2022-08-12T02:24:07.822Z,25.04
2022-08-12T02:26:37.627Z,25.03
2022-08-12T02:29:08.160Z,25.03
2022-08-12T02:31:36.315Z,25.03
2022-08-12T02:34:04.440Z,25.03
2022-08-12T02:36:33.243Z,25.03
2022-08-12T02:39:01.897Z,25.03
2022-08-12T02:41:30.196Z,25.04
2022-08-12T02:44:01.605Z,25.03
2022-08-12T02:46:32.561Z,25.03
2022-08-12T02:49:04.726Z,25.03
2022-08-12T02:51:33.789Z,25.03
2022-08-12T02:54:06.196Z,25.02
2022-08-12T02:56:37.687Z,25.02
2022-08-12T02:59:06.860Z,25.01
2022-08-12T03:01:36.511Z,25.02
2022-08-12T03:04:21.097Z,25.02
2022-08-12T03:06:52.691Z,25.01
2022-08-12T03:09:21.934Z,25.02
2022-08-12T03:11:56.435Z,25.01
2022-08-12T03:14:28.510Z,25.00
2022-08-12T03:17:01.058Z,25.00
2022-08-12T03:19:31.167Z,25.00
2022-08-12T03:22:13.122Z,24.99
2022-08-12T03:24:43.143Z,24.99
2022-08-12T03:27:13.157Z,24.98
2022-08-12T03:29:46.991Z,24.98
2022-08-12T03:32:35.955Z,24.99
2022-08-12T03:35:07.528Z,24.99
2022-08-12T03:37:35.979Z,24.98
2022-08-12T03:40:04.368Z,24.98
2022-08-12T03:42:34.987Z,24.98
2022-08-12T03:45:35.817Z,24.99
2022-08-12T03:48:38.293Z,24.98
2022-08-12T03:51:24.073Z,24.97
2022-08-12T03:54:11.626Z,24.96
2022-08-12T03:56:57.782Z,24.96
2022-08-12T03:59:43.211Z,24.95
2022-08-12T04:02:14.619Z,24.95
2022-08-12T04:04:45.603Z,24.95
2022-08-12T04:07:14.323Z,24.97
2022-08-12T04:09:43.379Z,24.97
2022-08-12T04:12:32.792Z,24.97
2022-08-12T04:15:01.473Z,24.98
2022-08-12T04:17:29.697Z,24.92
2022-08-12T04:19:59.552Z,24.88
2022-08-12T04:22:30.841Z,24.84
2022-08-12T04:25:01.357Z,24.82
2022-08-12T04:27:32.099Z,24.80
2022-08-12T04:30:31.436Z,24.78
2022-08-12T04:32:50.071Z,24.76
2022-08-12T04:35:19.810Z,24.74
2022-08-12T04:37:58.422Z,24.73
2022-08-12T04:40:29.791Z,24.71
2022-08-12T04:42:58.371Z,24.71
2022-08-12T04:45:26.517Z,24.69
2022-08-12T04:47:54.664Z,24.68
2022-08-12T04:50:35.373Z,24.67
2022-08-12T04:53:05.695Z,24.67
2022-08-12T04:55:34.714Z,24.65
2022-08-12T04:58:02.955Z,24.64
2022-08-12T05:00:31.100Z,24.64
2022-08-12T05:02:59.213Z,24.63
2022-08-12T05:05:33.860Z,24.64
2022-08-12T05:08:04.332Z,24.62
2022-08-12T05:10:35.762Z,24.63
2022-08-12T05:13:06.285Z,24.61
2022-08-12T05:15:36.207Z,24.60
2022-08-12T05:18:19.630Z,24.57
2022-08-12T05:20:50.467Z,24.54
2022-08-12T05:23:19.431Z,24.51
2022-08-12T05:25:48.812Z,24.46
2022-08-12T05:28:17.117Z,24.43
2022-08-12T05:30:45.339Z,24.45
2022-08-12T05:33:14.866Z,24.45
2022-08-12T05:35:44.145Z,24.46
2022-08-12T05:38:32.105Z,24.49
2022-08-12T05:41:00.336Z,24.50
2022-08-12T05:43:28.815Z,24.52
2022-08-12T05:45:56.973Z,24.52
2022-08-12T05:48:25.569Z,24.55
2022-08-12T05:50:53.823Z,24.55
2022-08-12T05:53:23.950Z,24.55
2022-08-12T05:55:53.338Z,24.56
2022-08-12T05:58:21.578Z,24.55
2022-08-12T06:00:49.669Z,24.55
2022-08-12T06:03:19.630Z,24.55
2022-08-12T06:05:55.554Z,24.55
2022-08-12T06:08:26.038Z,24.55
2022-08-12T06:10:54.220Z,24.57
2022-08-12T06:13:25.714Z,24.57
2022-08-12T06:15:57.219Z,24.56
2022-08-12T06:18:29.628Z,24.56
2022-08-12T06:21:00.251Z,24.57
2022-08-12T06:23:31.635Z,24.57
2022-08-12T06:26:00.006Z,24.58
2022-08-12T06:28:30.541Z,24.58
2022-08-12T06:31:24.442Z,24.57
2022-08-12T06:34:00.128Z,24.56
2022-08-12T06:36:36.909Z,24.55
2022-08-12T06:39:15.006Z,24.56
2022-08-12T06:42:10.671Z,24.54
2022-08-12T06:44:50.580Z,24.54
2022-08-12T06:47:19.689Z,24.57
2022-08-12T06:49:49.553Z,24.59
2022-08-12T06:52:21.662Z,24.61
2022-08-12T06:54:53.599Z,24.63
2022-08-12T06:58:05.703Z,24.64
2022-08-12T07:00:12.333Z,24.65
2022-08-12T07:02:40.652Z,24.67
2022-08-12T07:05:09.697Z,24.68
2022-08-12T07:07:38.975Z,24.69
2022-08-12T07:10:09.455Z,24.70
2022-08-12T07:12:37.635Z,24.72
2022-08-12T07:15:06.570Z,24.73
2022-08-12T07:17:37.747Z,24.73
2022-08-12T07:20:09.975Z,24.75
2022-08-12T07:22:39.938Z,24.76
2022-08-12T07:25:27.768Z,24.77
2022-08-12T07:27:56.024Z,24.77
2022-08-12T07:30:24.282Z,24.78
2022-08-12T07:32:52.570Z,24.78
2022-08-12T07:35:20.817Z,24.79
2022-08-12T07:37:50.606Z,24.80
2022-08-12T07:40:20.401Z,24.81
2022-08-12T07:42:48.515Z,24.81
2022-08-12T07:45:16.654Z,24.82
2022-08-12T07:47:44.975Z,24.83
2022-08-12T07:50:13.399Z,24.83
2022-08-12T07:52:43.252Z,24.84
2022-08-12T07:55:12.111Z,24.84
2022-08-12T07:57:52.456Z,24.85
2022-08-12T08:00:20.941Z,24.85
2022-08-12T08:02:49.374Z,24.85
2022-08-12T08:05:18.729Z,24.85
2022-08-12T08:07:46.849Z,24.85
2022-08-12T08:10:15.031Z,24.87
2022-08-12T08:12:54.059Z,24.84
2022-08-12T08:15:44.494Z,24.81
2022-08-12T08:18:17.143Z,24.79
2022-08-12T08:20:55.414Z,24.80
2022-08-12T08:23:34.836Z,24.81
2022-08-12T08:26:03.487Z,24.81
2022-08-12T08:28:36.566Z,24.82
2022-08-12T08:31:06.169Z,24.83
2022-08-12T08:34:09.022Z,24.84
2022-08-12T08:36:23.915Z,24.85
2022-08-12T08:38:58.447Z,24.85
2022-08-12T08:42:15.967Z,24.86
2022-08-12T08:44:32.531Z,24.86
2022-08-12T08:47:03.866Z,24.87
2022-08-12T08:49:32.207Z,24.87
2022-08-12T08:52:03.366Z,24.88
2022-08-12T08:54:33.500Z,24.89
2022-08-12T08:57:01.627Z,24.87
2022-08-12T08:59:29.789Z,24.84
2022-08-12T09:01:58.135Z,24.83
2022-08-12T09:05:13.409Z,24.84
2022-08-12T09:07:51.324Z,24.84
2022-08-12T09:10:15.650Z,24.86
2022-08-12T09:13:22.995Z,24.85
2022-08-12T09:15:57.738Z,24.84
2022-08-12T09:18:33.290Z,24.84
2022-08-12T09:21:03.881Z,24.86
2022-08-12T09:24:00.869Z,24.85
2022-08-12T09:26:28.436Z,24.87
2022-08-12T09:28:57.176Z,24.88
2022-08-12T09:32:06.867Z,24.89
2022-08-12T09:34:27.804Z,24.89
2022-08-12T09:37:18.709Z,24.90
2022-08-12T09:40:02.356Z,24.89
2022-08-12T09:46:11.391Z,24.91
2022-08-12T09:48:39.216Z,24.92
2022-08-12T09:51:11.050Z,24.93
2022-08-12T09:54:05.442Z,24.95
2022-08-12T09:56:58.501Z,24.95
2022-08-12T10:00:16.324Z,24.95
2022-08-12T10:02:42.616Z,24.95
2022-08-12T10:05:01.807Z,24.95
2022-08-12T10:07:40.603Z,24.96
2022-08-12T10:10:23.017Z,24.97
2022-08-12T10:13:13.373Z,24.97
2022-08-12T10:16:04.669Z,24.97
2022-08-12T10:18:51.984Z,24.97
2022-08-12T10:21:21.976Z,24.97
2022-08-12T10:23:56.695Z,24.98
2022-08-12T10:26:44.630Z,24.99
2022-08-12T10:30:38.840Z,24.99
2022-08-12T10:32:43.673Z,25.00
2022-08-12T10:35:10.252Z,25.02
2022-08-12T10:38:37.336Z,25.02
2022-08-12T10:40:32.291Z,25.04
2022-08-12T10:43:20.267Z,25.05
2022-08-12T10:45:49.329Z,25.05
2022-08-12T10:48:26.774Z,25.06
2022-08-12T10:52:03.150Z,25.07
2022-08-12T10:53:54.317Z,25.08
2022-08-12T10:56:34.262Z,25.09
2022-08-12T10:59:10.898Z,25.09
2022-08-12T11:04:16.863Z,25.09
2022-08-12T11:04:41.310Z,25.11
2022-08-12T11:08:35.124Z,25.11
2022-08-12T11:10:03.127Z,25.10
2022-08-12T11:12:57.083Z,25.10
2022-08-12T11:15:32.709Z,25.12
2022-08-12T11:18:18.740Z,25.14
2022-08-12T11:20:48.520Z,25.15
2022-08-12T11:23:25.973Z,25.16
2022-08-12T11:26:06.787Z,25.17
2022-08-12T11:28:37.169Z,25.19
2022-08-12T11:31:11.902Z,25.21
2022-08-12T11:34:05.619Z,25.22
2022-08-12T11:36:30.691Z,25.23
2022-08-12T11:39:02.298Z,25.24
2022-08-12T11:41:33.170Z,25.25
2022-08-12T11:44:33.359Z,25.27
2022-08-12T11:46:52.887Z,25.27
2022-08-12T11:49:31.005Z,25.29
2022-08-12T11:52:00.200Z,25.29
2022-08-12T11:54:29.804Z,25.31
2022-08-12T11:56:59.381Z,25.32
2022-08-12T12:02:20.554Z,25.33
2022-08-12T12:04:53.007Z,25.35
2022-08-12T12:07:33.946Z,25.37
2022-08-12T12:10:12.821Z,25.39
2022-08-12T12:12:41.540Z,25.40
2022-08-12T12:15:24.868Z,25.41
2022-08-12T12:17:56.447Z,25.41
2022-08-12T12:20:26.008Z,25.44
2022-08-12T12:22:56.011Z,25.45
2022-08-12T12:25:59.584Z,25.45
2022-08-12T12:28:37.108Z,25.48
2022-08-12T12:31:01.093Z,25.49
2022-08-12T12:33:56.892Z,25.51
2022-08-12T12:36:29.294Z,25.52
2022-08-12T12:38:59.980Z,25.52
2022-08-12T12:42:43.425Z,25.53
2022-08-12T12:44:26.142Z,25.54
2022-08-12T12:47:17.859Z,25.54
2022-08-12T12:49:55.758Z,25.55
2022-08-12T12:52:26.129Z,25.55
2022-08-12T12:54:58.671Z,25.56
2022-08-12T12:57:59.551Z,25.56
2022-08-12T13:00:15.990Z,25.57
2022-08-12T13:02:52.957Z,25.57
2022-08-12T13:05:27.765Z,25.57
2022-08-12T13:08:01.208Z,25.57
2022-08-12T13:10:32.146Z,25.59
2022-08-12T13:14:06.760Z,25.58
2022-08-12T13:15:53.934Z,25.58
2022-08-12T13:18:30.953Z,25.58
2022-08-12T13:21:01.069Z,25.58
2022-08-12T13:23:36.943Z,25.59
2022-08-12T13:26:05.749Z,25.60
2022-08-12T13:28:33.964Z,25.60
2022-08-12T13:31:03.078Z,25.60
2022-08-12T13:34:32.553Z,25.59
2022-08-12T13:36:21.944Z,25.60
2022-08-12T13:38:54.187Z,25.60
2022-08-12T13:41:35.884Z,25.62
2022-08-12T13:44:05.294Z,25.63
2022-08-12T13:46:34.822Z,25.63
2022-08-12T13:49:04.811Z,25.63
2022-08-12T13:51:41.166Z,25.63
2022-08-12T13:54:13.984Z,25.64
2022-08-12T13:56:42.380Z,25.64
2022-08-12T13:59:18.530Z,25.63
2022-08-12T14:01:54.421Z,25.63
2022-08-12T14:04:25.063Z,25.63
2022-08-12T14:06:58.404Z,25.64
2022-08-12T14:09:29.885Z,25.63
2022-08-12T14:11:59.967Z,25.64
2022-08-12T14:14:31.627Z,25.63
2022-08-12T14:17:05.662Z,25.63
2022-08-12T14:19:37.954Z,25.62
2022-08-12T14:22:10.574Z,25.60
2022-08-12T14:24:40.560Z,25.57
2022-08-12T14:27:10.885Z,25.56
2022-08-12T14:30:06.165Z,25.57
2022-08-12T14:32:39.991Z,25.57
2022-08-12T14:35:09.770Z,25.56
2022-08-12T14:37:54.912Z,25.54
2022-08-12T14:40:27.745Z,25.54
2022-08-12T14:42:57.355Z,25.54
2022-08-12T14:45:44.836Z,25.53
2022-08-12T14:48:14.876Z,25.52
2022-08-12T14:52:16.281Z,25.53
2022-08-12T14:59:56.429Z,25.50
2022-08-12T15:02:19.679Z,25.49
2022-08-12T15:04:50.391Z,25.50
2022-08-12T15:07:33.449Z,25.49
2022-08-12T15:10:09.441Z,25.47
2022-08-12T15:12:40.637Z,25.45
2022-08-12T15:15:10.539Z,25.44
2022-08-12T15:17:39.911Z,25.43
2022-08-12T15:20:31.832Z,25.42
2022-08-12T15:22:58.013Z,25.41
2022-08-12T15:25:27.586Z,25.41
2022-08-12T15:28:04.457Z,25.41
2022-08-12T15:30:35.068Z,25.40
2022-08-12T15:33:12.721Z,25.40
2022-08-12T15:35:50.385Z,25.38
2022-08-12T15:38:24.592Z,25.37
2022-08-12T15:40:56.262Z,25.36
2022-08-12T15:44:14.093Z,25.35
2022-08-12T15:46:17.029Z,25.33
2022-08-12T15:48:47.018Z,25.33
2022-08-12T15:51:58.215Z,25.33
2022-08-12T15:54:30.926Z,25.30
2022-08-12T15:57:07.927Z,25.30
2022-08-12T16:00:03.721Z,25.29
2022-08-12T16:02:29.810Z,25.27
2022-08-12T16:04:58.682Z,25.27
2022-08-12T16:07:31.222Z,25.28
2022-08-12T16:10:08.433Z,25.29
2022-08-12T16:12:43.702Z,25.30
2022-08-12T16:15:25.069Z,25.30
2022-08-12T16:18:18.973Z,25.31
2022-08-12T16:20:46.651Z,25.30
2022-08-12T16:23:36.239Z,25.31
2022-08-12T16:26:06.198Z,25.31
2022-08-12T16:28:47.638Z,25.30
2022-08-12T16:31:23.316Z,25.30
2022-08-12T16:33:59.515Z,25.31
2022-08-12T16:36:29.679Z,25.30
2022-08-12T16:39:01.371Z,25.30
2022-08-12T16:41:38.213Z,25.30
2022-08-12T16:44:09.709Z,25.31
2022-08-12T16:46:38.803Z,25.29
2022-08-12T16:49:09.350Z,25.30
2022-08-12T16:51:46.568Z,25.30
2022-08-12T16:54:17.217Z,25.28
2022-08-12T16:56:54.989Z,25.26
2022-08-12T16:59:30.960Z,25.24
2022-08-12T17:02:31.164Z,25.22
2022-08-12T17:05:06.269Z,25.21
2022-08-12T17:07:43.430Z,25.18
2022-08-12T17:10:13.403Z,25.17
2022-08-12T17:12:46.811Z,25.14
2022-08-12T17:15:50.904Z,25.13
2022-08-12T17:18:42.186Z,25.12
2022-08-12T17:20:57.820Z,25.11
2022-08-12T17:23:26.746Z,25.10
2022-08-12T17:26:01.650Z,25.08
2022-08-12T17:28:31.679Z,25.07
2022-08-12T17:31:01.130Z,25.04
2022-08-12T17:33:33.899Z,25.04
2022-08-12T17:36:03.005Z,25.03
2022-08-12T17:38:31.147Z,25.02
2022-08-12T17:40:59.757Z,25.01
2022-08-12T17:43:58.160Z,24.99
2022-08-12T17:46:33.523Z,24.98
2022-08-12T17:49:18.885Z,24.98
2022-08-12T17:51:50.280Z,24.96
2022-08-12T17:54:18.979Z,24.95
2022-08-12T17:56:47.382Z,24.94
2022-08-12T17:59:47.228Z,24.94
2022-08-12T18:02:12.362Z,24.93
2022-08-12T18:05:05.238Z,24.96
2022-08-12T18:07:36.010Z,24.97
2022-08-12T18:10:05.626Z,24.98
2022-08-12T18:12:51.067Z,25.00
2022-08-12T18:15:26.763Z,25.01
2022-08-12T18:18:16.862Z,24.97
2022-08-12T18:20:47.783Z,24.93
2022-08-12T18:23:24.256Z,24.90
2022-08-12T18:26:14.631Z,24.89
2022-08-12T18:28:44.522Z,24.90
2022-08-12T18:31:17.218Z,24.92
2022-08-12T18:33:47.238Z,24.94
2022-08-12T18:36:22.053Z,24.96
2022-08-12T18:38:56.022Z,24.96
2022-08-12T18:41:32.088Z,24.97
2022-08-12T18:44:05.344Z,24.98
2022-08-12T18:46:53.785Z,24.98
2022-08-12T18:49:29.682Z,24.98
2022-08-12T18:52:04.452Z,24.99
2022-08-12T18:54:35.187Z,24.99
2022-08-12T18:57:16.243Z,25.00
2022-08-12T18:59:59.827Z,25.00
2022-08-12T19:02:33.880Z,25.00
2022-08-12T19:05:11.280Z,25.02
2022-08-12T19:07:49.754Z,25.01
2022-08-12T19:10:30.153Z,25.01
2022-08-12T19:13:24.385Z,25.01
2022-08-12T19:15:57.319Z,24.98
2022-08-12T19:18:29.298Z,24.94
2022-08-12T19:21:06.230Z,24.90
2022-08-12T19:23:37.364Z,24.90
2022-08-12T19:26:10.539Z,24.90
2022-08-12T19:28:40.736Z,24.92
2022-08-12T19:31:56.927Z,24.92
2022-08-12T19:34:47.011Z,24.92
2022-08-12T19:37:22.612Z,24.93
2022-08-12T19:40:08.908Z,24.94
2022-08-12T19:42:44.510Z,24.95
2022-08-12T19:45:16.917Z,24.94
2022-08-12T19:47:46.981Z,24.94
2022-08-12T19:50:20.160Z,24.95
2022-08-12T19:52:51.410Z,24.95
2022-08-12T19:55:23.983Z,24.96
2022-08-12T19:58:02.473Z,24.97
2022-08-12T20:00:35.288Z,24.97
2022-08-12T20:03:05.570Z,24.98
2022-08-12T20:06:04.989Z,24.98
2022-08-12T20:08:34.135Z,24.94
2022-08-12T20:12:11.726Z,24.88
2022-08-12T20:14:00.384Z,24.88
2022-08-12T20:16:52.276Z,24.90
2022-08-12T20:19:23.549Z,24.92
2022-08-12T20:21:51.802Z,24.92
2022-08-12T20:24:24.496Z,24.93
2022-08-12T20:27:00.304Z,24.94
2022-08-12T20:29:35.522Z,24.95
2022-08-12T20:32:13.919Z,24.96
2022-08-12T20:34:49.086Z,24.96
2022-08-12T20:37:22.445Z,24.95
2022-08-12T20:40:12.962Z,24.96
2022-08-12T20:42:41.544Z,24.96
2022-08-12T20:45:10.761Z,24.98
2022-08-12T20:47:46.712Z,25.01
2022-08-12T20:50:15.545Z,25.02
2022-08-12T20:52:49.175Z,25.01
2022-08-12T20:55:19.538Z,25.00
2022-08-12T20:58:02.998Z,25.00
2022-08-12T21:00:33.344Z,24.99
2022-08-12T21:03:23.400Z,24.99
2022-08-12T21:06:13.857Z,24.99
2022-08-12T21:08:42.756Z,24.97
2022-08-12T21:11:12.313Z,24.97
2022-08-12T21:13:42.091Z,24.97
2022-08-12T21:16:10.733Z,24.97
2022-08-12T21:18:39.698Z,24.96
2022-08-12T21:21:24.256Z,24.95
2022-08-12T21:23:58.983Z,24.96
2022-08-12T21:26:29.043Z,24.95
2022-08-12T21:29:01.101Z,24.95
2022-08-12T21:32:36.876Z,24.94
2022-08-12T21:34:22.147Z,24.93
2022-08-12T21:36:54.697Z,24.94
2022-08-12T21:39:35.274Z,24.92
2022-08-12T21:42:07.122Z,24.93
2022-08-12T21:45:47.215Z,24.93
2022-08-12T21:47:25.826Z,24.93
2022-08-12T21:50:03.460Z,24.91
2022-08-12T21:52:35.801Z,24.91
2022-08-12T21:55:19.716Z,24.91
2022-08-12T21:57:54.850Z,24.91
2022-08-12T22:00:34.432Z,24.91
2022-08-12T22:03:55.028Z,24.90
2022-08-12T22:06:31.065Z,24.91
2022-08-12T22:09:16.595Z,24.90
2022-08-12T22:11:56.214Z,24.89
2022-08-12T22:14:26.778Z,24.89
2022-08-12T22:16:55.619Z,24.88
2022-08-12T22:19:24.109Z,24.89
2022-08-12T22:21:54.724Z,24.89
2022-08-12T22:24:25.821Z,24.87
2022-08-12T22:26:56.051Z,24.88
2022-08-12T22:29:44.287Z,24.88
2022-08-12T22:32:13.297Z,24.87
2022-08-12T22:34:46.256Z,24.87
2022-08-12T22:37:19.895Z,24.87
2022-08-12T22:39:49.427Z,24.86
2022-08-12T22:42:35.697Z,24.85
2022-08-12T22:45:23.947Z,24.85
2022-08-12T22:47:54.998Z,24.86
2022-08-12T22:50:28.929Z,24.85
2022-08-12T22:53:14.938Z,24.86
2022-08-12T22:56:06.181Z,24.85
2022-08-12T22:58:33.703Z,24.84
2022-08-12T23:01:03.690Z,24.85
2022-08-12T23:03:49.226Z,24.85
2022-08-12T23:06:20.133Z,24.84
2022-08-12T23:08:48.584Z,24.84
2022-08-12T23:11:17.978Z,24.85
2022-08-12T23:13:54.708Z,24.84
2022-08-12T23:16:29.366Z,24.84
2022-08-12T23:19:01.849Z,24.83
2022-08-12T23:22:04.042Z,24.84
2022-08-12T23:24:26.739Z,24.83
2022-08-12T23:27:13.027Z,24.83
2022-08-12T23:29:43.370Z,24.84
2022-08-12T23:32:35.831Z,24.84
2022-08-12T23:35:03.847Z,24.83
2022-08-12T23:37:47.485Z,24.84
2022-08-12T23:40:21.262Z,24.82
2022-08-12T23:42:50.906Z,24.82
2022-08-12T23:45:30.614Z,24.83
2022-08-12T23:48:00.530Z,24.82
2022-08-12T23:50:33.852Z,24.82
2022-08-12T23:53:05.429Z,24.82
2022-08-12T23:55:40.728Z,24.82
2022-08-12T23:58:17.428Z,24.81
